EGNS

Isle of Man Airport

Castletown, Isle of Man
TAF EGNS 211700Z 2118/2121 33022G35KT 9999 FEW030
Issued Valid From Valid To
Jun-21 @ 17:00 UTC
(an hour ago)
Jun-21 @ 18:00 UTC
(3 minutes ago)
Jun-21 @ 21:00 UTC
(in 3 hours)
Jun-21 @ 18:00 to Jun-21 @ 21:00
TAF EGNS 211700Z 2118/2121 33022G35KT 9999 FEW030
Wind Visibility Clouds
330° at 22 knots
 Gusting to 35 knots
10,000+ meters
  • Few at 3,000' AGL
TAF EGNS 211700Z 2118/2121 33022G35KT 9999 FEW030
Issued Jun-21 @ 17:00 UTC
(an hour ago)
Valid From Jun-21 @ 18:00 UTC
(3 minutes ago)
Valid To Jun-21 @ 21:00 UTC
(in 3 hours)
Jun-21 @ 18:00 - Jun-21 @ 21:00
Wind Visibility
330° at 22 knots
 Gusting to 35 knots
10,000+ meters
Clouds
  • Few at 3,000' AGL